sensor_id;sensor_type;location;lat;lon;timestamp;temperature;humidity
70068;DHT22;57425;51.616;6.680;2023-09-19T17:21:09;21.70;64.90
70068;DHT22;57425;51.616;6.680;2023-09-19T17:23:38;21.70;65.10
70068;DHT22;57425;51.616;6.680;2023-09-19T17:26:11;21.70;65.00
70068;DHT22;57425;51.616;6.680;2023-09-19T17:28:37;21.70;65.00
70068;DHT22;57425;51.616;6.680;2023-09-19T17:31:14;21.80;64.90
70068;DHT22;57425;51.616;6.680;2023-09-19T17:33:40;21.80;64.80
70068;DHT22;57425;51.616;6.680;2023-09-19T17:36:16;21.70;64.90
70068;DHT22;57425;51.616;6.680;2023-09-19T17:38:46;21.80;65.00
70068;DHT22;57425;51.616;6.680;2023-09-19T17:41:12;21.80;64.90
70068;DHT22;57425;51.616;6.680;2023-09-19T17:43:40;21.80;65.00
70068;DHT22;57425;51.616;6.680;2023-09-19T17:46:10;21.80;65.60
70068;DHT22;57425;51.616;6.680;2023-09-19T17:48:42;21.80;64.90
70068;DHT22;57425;51.616;6.680;2023-09-19T17:51:09;21.80;64.80
70068;DHT22;57425;51.616;6.680;2023-09-19T17:53:36;21.80;64.60
70068;DHT22;57425;51.616;6.680;2023-09-19T17:56:06;21.70;64.40
70068;DHT22;57425;51.616;6.680;2023-09-19T17:58:36;21.80;64.40
70068;DHT22;57425;51.616;6.680;2023-09-19T18:01:11;21.70;64.60
70068;DHT22;57425;51.616;6.680;2023-09-19T18:03:38;21.80;64.60
70068;DHT22;57425;51.616;6.680;2023-09-19T18:06:05;21.80;64.70
70068;DHT22;57425;51.616;6.680;2023-09-19T18:08:31;21.70;64.70
70068;DHT22;57425;51.616;6.680;2023-09-19T18:10:57;21.80;64.80
70068;DHT22;57425;51.616;6.680;2023-09-19T18:13:23;21.70;64.60
70068;DHT22;57425;51.616;6.680;2023-09-19T18:15:49;21.80;64.70
70068;DHT22;57425;51.616;6.680;2023-09-19T18:18:14;21.70;64.60
70068;DHT22;57425;51.616;6.680;2023-09-19T18:20:40;21.70;64.70
70068;DHT22;57425;51.616;6.680;2023-09-19T18:23:10;21.70;64.60
70068;DHT22;57425;51.616;6.680;2023-09-19T18:25:37;21.70;64.30
70068;DHT22;57425;51.616;6.680;2023-09-19T18:28:04;21.70;64.30
70068;DHT22;57425;51.616;6.680;2023-09-19T18:30:31;21.70;64.50
70068;DHT22;57425;51.616;6.680;2023-09-19T18:32:59;21.70;64.40
70068;DHT22;57425;51.616;6.680;2023-09-19T18:35:25;21.70;64.30
70068;DHT22;57425;51.616;6.680;2023-09-19T18:37:54;21.70;64.20
70068;DHT22;57425;51.616;6.680;2023-09-19T18:40:23;21.70;64.20
70068;DHT22;57425;51.616;6.680;2023-09-19T18:42:49;21.70;64.20
70068;DHT22;57425;51.616;6.680;2023-09-19T18:45:15;21.70;64.50
70068;DHT22;57425;51.616;6.680;2023-09-19T18:47:41;21.70;63.90
70068;DHT22;57425;51.616;6.680;2023-09-19T18:50:11;21.70;63.90
70068;DHT22;57425;51.616;6.680;2023-09-19T18:52:37;21.70;63.90
70068;DHT22;57425;51.616;6.680;2023-09-19T18:55:08;21.70;63.90
70068;DHT22;57425;51.616;6.680;2023-09-19T18:57:38;21.70;63.90
70068;DHT22;57425;51.616;6.680;2023-09-19T19:00:05;21.60;63.80
70068;DHT22;57425;51.616;6.680;2023-09-19T19:02:32;21.60;63.70
70068;DHT22;57425;51.616;6.680;2023-09-19T19:04:58;21.60;63.70
70068;DHT22;57425;51.616;6.680;2023-09-19T19:07:24;21.60;63.70
70068;DHT22;57425;51.616;6.680;2023-09-19T19:09:51;21.60;63.60
70068;DHT22;57425;51.616;6.680;2023-09-19T19:12:17;21.60;63.60
70068;DHT22;57425;51.616;6.680;2023-09-19T19:14:43;21.60;63.60
70068;DHT22;57425;51.616;6.680;2023-09-19T19:17:12;21.60;63.60
70068;DHT22;57425;51.616;6.680;2023-09-19T19:19:40;21.60;63.50
70068;DHT22;57425;51.616;6.680;2023-09-19T19:22:06;21.60;63.70
70068;DHT22;57425;51.616;6.680;2023-09-19T19:24:33;21.50;64.10
70068;DHT22;57425;51.616;6.680;2023-09-19T19:26:59;21.50;63.50
70068;DHT22;57425;51.616;6.680;2023-09-19T19:29:25;21.60;63.60
70068;DHT22;57425;51.616;6.680;2023-09-19T19:31:50;21.50;63.40
70068;DHT22;57425;51.616;6.680;2023-09-19T19:34:18;21.50;63.40
70068;DHT22;57425;51.616;6.680;2023-09-19T19:36:43;21.50;63.40
70068;DHT22;57425;51.616;6.680;2023-09-19T19:39:10;21.50;63.40
70068;DHT22;57425;51.616;6.680;2023-09-19T19:41:40;21.50;63.40
70068;DHT22;57425;51.616;6.680;2023-09-19T19:44:08;21.50;63.40
70068;DHT22;57425;51.616;6.680;2023-09-19T19:46:34;21.50;63.30
70068;DHT22;57425;51.616;6.680;2023-09-19T19:48:59;21.50;63.40
70068;DHT22;57425;51.616;6.680;2023-09-19T19:51:26;21.50;63.30
70068;DHT22;57425;51.616;6.680;2023-09-19T19:53:52;21.50;63.20
70068;DHT22;57425;51.616;6.680;2023-09-19T19:56:20;21.50;63.20
70068;DHT22;57425;51.616;6.680;2023-09-19T19:58:46;21.50;63.10
70068;DHT22;57425;51.616;6.680;2023-09-19T20:01:13;21.50;63.20
70068;DHT22;57425;51.616;6.680;2023-09-19T20:03:39;21.50;63.20
70068;DHT22;57425;51.616;6.680;2023-09-19T20:06:05;21.50;63.70
70068;DHT22;57425;51.616;6.680;2023-09-19T20:08:33;21.50;63.10
70068;DHT22;57425;51.616;6.680;2023-09-19T20:11:06;21.40;63.00
70068;DHT22;57425;51.616;6.680;2023-09-19T20:13:33;21.60;63.70
70068;DHT22;57425;51.616;6.680;2023-09-19T20:15:59;21.40;63.10
70068;DHT22;57425;51.616;6.680;2023-09-19T20:18:26;21.40;63.20
70068;DHT22;57425;51.616;6.680;2023-09-19T20:20:52;21.40;63.10
70068;DHT22;57425;51.616;6.680;2023-09-19T20:23:18;21.40;63.00
70068;DHT22;57425;51.616;6.680;2023-09-19T20:25:45;21.40;63.10
70068;DHT22;57425;51.616;6.680;2023-09-19T20:28:11;21.40;63.10
70068;DHT22;57425;51.616;6.680;2023-09-19T20:30:42;21.40;63.10
70068;DHT22;57425;51.616;6.680;2023-09-19T20:33:11;21.40;63.10
70068;DHT22;57425;51.616;6.680;2023-09-19T20:35:42;21.40;63.10
70068;DHT22;57425;51.616;6.680;2023-09-19T20:38:08;21.40;63.10
70068;DHT22;57425;51.616;6.680;2023-09-19T20:40:40;21.30;63.10
70068;DHT22;57425;51.616;6.680;2023-09-19T20:43:05;21.40;63.30
70068;DHT22;57425;51.616;6.680;2023-09-19T20:45:31;21.40;63.30
70068;DHT22;57425;51.616;6.680;2023-09-19T20:47:59;21.30;63.20
70068;DHT22;57425;51.616;6.680;2023-09-19T20:50:24;21.30;63.20
70068;DHT22;57425;51.616;6.680;2023-09-19T20:52:52;21.30;63.10
70068;DHT22;57425;51.616;6.680;2023-09-19T20:55:18;21.30;63.20
70068;DHT22;57425;51.616;6.680;2023-09-19T20:57:45;21.30;63.10
70068;DHT22;57425;51.616;6.680;2023-09-19T21:00:11;21.30;63.20
70068;DHT22;57425;51.616;6.680;2023-09-19T21:02:38;21.30;63.10
70068;DHT22;57425;51.616;6.680;2023-09-19T21:05:05;21.30;63.20
70068;DHT22;57425;51.616;6.680;2023-09-19T21:07:31;21.30;63.30
70068;DHT22;57425;51.616;6.680;2023-09-19T21:09:58;21.30;63.20
70068;DHT22;57425;51.616;6.680;2023-09-19T21:12:24;21.30;63.20
70068;DHT22;57425;51.616;6.680;2023-09-19T21:14:50;21.30;63.20
70068;DHT22;57425;51.616;6.680;2023-09-19T21:17:19;21.30;63.20
70068;DHT22;57425;51.616;6.680;2023-09-19T21:19:45;21.30;63.70
70068;DHT22;57425;51.616;6.680;2023-09-19T21:22:11;21.30;63.10
70068;DHT22;57425;51.616;6.680;2023-09-19T21:24:37;21.30;63.20
70068;DHT22;57425;51.616;6.680;2023-09-19T21:27:03;21.30;63.30
70068;DHT22;57425;51.616;6.680;2023-09-19T21:29:33;21.20;63.20
70068;DHT22;57425;51.616;6.680;2023-09-19T21:31:59;21.20;63.10
70068;DHT22;57425;51.616;6.680;2023-09-19T21:34:25;21.20;63.20
70068;DHT22;57425;51.616;6.680;2023-09-19T21:36:50;21.20;63.20
70068;DHT22;57425;51.616;6.680;2023-09-19T21:39:17;21.20;63.30
70068;DHT22;57425;51.616;6.680;2023-09-19T21:41:43;21.20;63.40
70068;DHT22;57425;51.616;6.680;2023-09-19T21:44:09;21.20;64.00
70068;DHT22;57425;51.616;6.680;2023-09-19T21:46:35;21.20;63.60
70068;DHT22;57425;51.616;6.680;2023-09-19T21:49:02;21.20;63.40
70068;DHT22;57425;51.616;6.680;2023-09-19T21:51:28;21.20;63.50
70068;DHT22;57425;51.616;6.680;2023-09-19T21:53:55;21.20;63.60
70068;DHT22;57425;51.616;6.680;2023-09-19T21:56:23;21.20;63.60
70068;DHT22;57425;51.616;6.680;2023-09-19T21:58:49;21.20;63.70
70068;DHT22;57425;51.616;6.680;2023-09-19T22:01:14;21.20;63.70
70068;DHT22;57425;51.616;6.680;2023-09-19T22:03:47;21.20;63.60
70068;DHT22;57425;51.616;6.680;2023-09-19T22:06:12;21.20;63.60
70068;DHT22;57425;51.616;6.680;2023-09-19T22:08:39;21.20;63.80
70068;DHT22;57425;51.616;6.680;2023-09-19T22:11:06;21.10;63.70
70068;DHT22;57425;51.616;6.680;2023-09-19T22:13:37;21.10;63.70
70068;DHT22;57425;51.616;6.680;2023-09-19T22:16:05;21.10;63.90
70068;DHT22;57425;51.616;6.680;2023-09-19T22:18:31;21.10;63.80
70068;DHT22;57425;51.616;6.680;2023-09-19T22:20:57;21.10;63.70
70068;DHT22;57425;51.616;6.680;2023-09-19T22:23:33;21.10;63.70
70068;DHT22;57425;51.616;6.680;2023-09-19T22:26:02;21.10;63.70
70068;DHT22;57425;51.616;6.680;2023-09-19T22:28:30;21.10;63.70
70068;DHT22;57425;51.616;6.680;2023-09-19T22:30:56;21.10;63.60
70068;DHT22;57425;51.616;6.680;2023-09-19T22:33:22;21.10;63.60
70068;DHT22;57425;51.616;6.680;2023-09-19T22:35:48;21.10;63.70
70068;DHT22;57425;51.616;6.680;2023-09-19T22:38:18;21.10;63.70
70068;DHT22;57425;51.616;6.680;2023-09-19T22:40:45;21.10;63.90
70068;DHT22;57425;51.616;6.680;2023-09-19T22:43:18;21.10;63.90
70068;DHT22;57425;51.616;6.680;2023-09-19T22:45:46;21.10;64.00
70068;DHT22;57425;51.616;6.680;2023-09-19T22:48:12;21.00;64.00
70068;DHT22;57425;51.616;6.680;2023-09-19T22:50:41;21.00;64.00
70068;DHT22;57425;51.616;6.680;2023-09-19T22:53:11;21.00;63.90
70068;DHT22;57425;51.616;6.680;2023-09-19T22:55:43;21.00;63.90
70068;DHT22;57425;51.616;6.680;2023-09-19T22:58:13;21.00;63.80
70068;DHT22;57425;51.616;6.680;2023-09-19T23:00:42;21.00;63.90
70068;DHT22;57425;51.616;6.680;2023-09-19T23:03:14;21.00;64.00
70068;DHT22;57425;51.616;6.680;2023-09-19T23:05:41;21.00;63.80
70068;DHT22;57425;51.616;6.680;2023-09-19T23:08:10;21.00;63.80
70068;DHT22;57425;51.616;6.680;2023-09-19T23:10:42;21.00;63.80
70068;DHT22;57425;51.616;6.680;2023-09-19T23:13:11;21.00;63.80
70068;DHT22;57425;51.616;6.680;2023-09-19T23:15:42;21.00;63.80
70068;DHT22;57425;51.616;6.680;2023-09-19T23:18:09;21.00;63.70
70068;DHT22;57425;51.616;6.680;2023-09-19T23:20:37;21.00;63.70
70068;DHT22;57425;51.616;6.680;2023-09-19T23:23:05;21.00;63.80
70068;DHT22;57425;51.616;6.680;2023-09-19T23:25:33;21.00;63.80
70068;DHT22;57425;51.616;6.680;2023-09-19T23:28:05;20.90;63.80
70068;DHT22;57425;51.616;6.680;2023-09-19T23:30:31;21.00;63.80
70068;DHT22;57425;51.616;6.680;2023-09-19T23:33:01;20.90;63.80
70068;DHT22;57425;51.616;6.680;2023-09-19T23:35:27;20.90;63.80
70068;DHT22;57425;51.616;6.680;2023-09-19T23:37:56;20.90;63.90
70068;DHT22;57425;51.616;6.680;2023-09-19T23:40:23;20.90;63.80
70068;DHT22;57425;51.616;6.680;2023-09-19T23:42:49;21.00;63.80
70068;DHT22;57425;51.616;6.680;2023-09-19T23:45:16;20.90;63.80
70068;DHT22;57425;51.616;6.680;2023-09-19T23:47:48;20.90;63.90
70068;DHT22;57425;51.616;6.680;2023-09-19T23:50:16;20.90;63.90
70068;DHT22;57425;51.616;6.680;2023-09-19T23:52:42;20.90;63.80
70068;DHT22;57425;51.616;6.680;2023-09-19T23:55:08;20.90;63.70
70068;DHT22;57425;51.616;6.680;2023-09-19T23:57:36;20.90;63.70
